sensor_id;sensor_type;location;lat;lon;timestamp;P1;durP1;ratioP1;P2;durP2;ratioP2
35243;SDS011;37916;52.160;21.066;2023-04-15T07:19:24;16.25;;;10.75;;
35243;SDS011;37916;52.160;21.066;2023-04-15T07:39:35;19.65;;;10.65;;
35243;SDS011;37916;52.160;21.066;2023-04-15T08:10:05;17.25;;;9.45;;
35243;SDS011;37916;52.160;21.066;2023-04-15T08:20:06;21.63;;;11.95;;
35243;SDS011;37916;52.160;21.066;2023-04-15T08:30:10;19.58;;;10.38;;
35243;SDS011;37916;52.160;21.066;2023-04-15T08:40:11;13.45;;;7.72;;
35243;SDS011;37916;52.160;21.066;2023-04-15T08:50:12;16.65;;;10.30;;
35243;SDS011;37916;52.160;21.066;2023-04-15T09:00:15;12.63;;;8.27;;
35243;SDS011;37916;52.160;21.066;2023-04-15T09:10:16;9.25;;;5.43;;
35243;SDS011;37916;52.160;21.066;2023-04-15T09:20:17;12.40;;;8.23;;
35243;SDS011;37916;52.160;21.066;2023-04-15T09:30:31;10.57;;;7.53;;
35243;SDS011;37916;52.160;21.066;2023-04-15T09:40:36;9.75;;;6.07;;
35243;SDS011;37916;52.160;21.066;2023-04-15T09:50:39;11.32;;;7.72;;
35243;SDS011;37916;52.160;21.066;2023-04-15T10:32:14;15.57;;;8.40;;
35243;SDS011;37916;52.160;21.066;2023-04-15T10:52:29;11.95;;;6.90;;
35243;SDS011;37916;52.160;21.066;2023-04-15T11:02:40;17.13;;;7.80;;
35243;SDS011;37916;52.160;21.066;2023-04-15T11:13:02;7.20;;;4.55;;
35243;SDS011;37916;52.160;21.066;2023-04-15T11:23:40;12.05;;;7.57;;
35243;SDS011;37916;52.160;21.066;2023-04-15T11:33:54;13.00;;;8.80;;
35243;SDS011;37916;52.160;21.066;2023-04-15T11:44:02;16.08;;;9.18;;
35243;SDS011;37916;52.160;21.066;2023-04-15T12:05:34;9.55;;;6.68;;
35243;SDS011;37916;52.160;21.066;2023-04-15T13:43:17;4.40;;;2.53;;
35243;SDS011;37916;52.160;21.066;2023-04-15T14:25:06;3.47;;;1.80;;
35243;SDS011;37916;52.160;21.066;2023-04-15T15:17:26;1.90;;;1.15;;
35243;SDS011;37916;52.160;21.066;2023-04-15T15:27:27;2.25;;;1.30;;
35243;SDS011;37916;52.160;21.066;2023-04-15T15:48:27;2.08;;;1.05;;
35243;SDS011;37916;52.160;21.066;2023-04-15T15:58:32;1.55;;;1.13;;
35243;SDS011;37916;52.160;21.066;2023-04-15T16:08:32;4.00;;;1.20;;
35243;SDS011;37916;52.160;21.066;2023-04-15T16:28:52;1.88;;;1.25;;
35243;SDS011;37916;52.160;21.066;2023-04-15T17:00:01;2.50;;;1.63;;
35243;SDS011;37916;52.160;21.066;2023-04-15T17:10:02;2.20;;;1.27;;
35243;SDS011;37916;52.160;21.066;2023-04-15T17:20:04;1.90;;;1.45;;
35243;SDS011;37916;52.160;21.066;2023-04-15T17:30:05;3.38;;;1.55;;
35243;SDS011;37916;52.160;21.066;2023-04-15T17:40:07;3.03;;;1.90;;
35243;SDS011;37916;52.160;21.066;2023-04-15T18:00:18;2.30;;;1.73;;
35243;SDS011;37916;52.160;21.066;2023-04-15T18:10:21;3.05;;;1.10;;
35243;SDS011;37916;52.160;21.066;2023-04-15T18:31:10;2.72;;;1.40;;
35243;SDS011;37916;52.160;21.066;2023-04-15T18:41:11;4.28;;;1.52;;
35243;SDS011;37916;52.160;21.066;2023-04-15T18:51:11;4.55;;;1.63;;
35243;SDS011;37916;52.160;21.066;2023-04-15T19:01:12;2.75;;;1.60;;
35243;SDS011;37916;52.160;21.066;2023-04-15T19:11:13;5.15;;;2.05;;
35243;SDS011;37916;52.160;21.066;2023-04-15T19:21:17;2.75;;;1.67;;
35243;SDS011;37916;52.160;21.066;2023-04-15T19:31:18;2.93;;;1.90;;
35243;SDS011;37916;52.160;21.066;2023-04-15T19:41:22;2.55;;;1.50;;
35243;SDS011;37916;52.160;21.066;2023-04-15T19:51:25;4.15;;;2.03;;
35243;SDS011;37916;52.160;21.066;2023-04-15T20:01:27;4.60;;;2.13;;
35243;SDS011;37916;52.160;21.066;2023-04-15T20:11:28;4.22;;;2.25;;
35243;SDS011;37916;52.160;21.066;2023-04-15T20:21:28;4.82;;;2.28;;
35243;SDS011;37916;52.160;21.066;2023-04-15T20:31:30;4.45;;;2.13;;
35243;SDS011;37916;52.160;21.066;2023-04-15T20:41:33;3.53;;;2.20;;
35243;SDS011;37916;52.160;21.066;2023-04-15T20:51:36;4.07;;;2.45;;
35243;SDS011;37916;52.160;21.066;2023-04-15T21:01:37;2.28;;;1.88;;
